sensor_id;sensor_type;location;lat;lon;timestamp;P1;durP1;ratioP1;P2;durP2;ratioP2
36391;SDS011;22639;42.690;23.356;2023-06-26T00:00:42;23.05;;;15.40;;
36391;SDS011;22639;42.690;23.356;2023-06-26T00:03:08;23.10;;;17.42;;
36391;SDS011;22639;42.690;23.356;2023-06-26T00:05:33;21.20;;;15.93;;
36391;SDS011;22639;42.690;23.356;2023-06-26T00:07:59;17.75;;;14.77;;
36391;SDS011;22639;42.690;23.356;2023-06-26T00:10:25;20.25;;;15.18;;
36391;SDS011;22639;42.690;23.356;2023-06-26T00:12:51;18.70;;;14.43;;
36391;SDS011;22639;42.690;23.356;2023-06-26T00:15:16;19.33;;;14.95;;
36391;SDS011;22639;42.690;23.356;2023-06-26T00:17:42;23.92;;;15.88;;
36391;SDS011;22639;42.690;23.356;2023-06-26T00:20:07;16.95;;;14.93;;
36391;SDS011;22639;42.690;23.356;2023-06-26T00:22:33;17.27;;;14.65;;
36391;SDS011;22639;42.690;23.356;2023-06-26T00:24:58;19.45;;;14.73;;
36391;SDS011;22639;42.690;23.356;2023-06-26T00:27:23;18.70;;;15.00;;
36391;SDS011;22639;42.690;23.356;2023-06-26T00:29:49;18.05;;;13.80;;
36391;SDS011;22639;42.690;23.356;2023-06-26T00:32:14;17.50;;;14.43;;
36391;SDS011;22639;42.690;23.356;2023-06-26T00:34:39;16.15;;;13.32;;
36391;SDS011;22639;42.690;23.356;2023-06-26T00:37:04;19.30;;;12.80;;
36391;SDS011;22639;42.690;23.356;2023-06-26T00:39:30;17.65;;;14.23;;
36391;SDS011;22639;42.690;23.356;2023-06-26T00:41:55;16.88;;;13.82;;
36391;SDS011;22639;42.690;23.356;2023-06-26T00:44:20;15.43;;;13.82;;
36391;SDS011;22639;42.690;23.356;2023-06-26T00:46:45;16.95;;;14.25;;
36391;SDS011;22639;42.690;23.356;2023-06-26T00:49:11;17.48;;;14.48;;
36391;SDS011;22639;42.690;23.356;2023-06-26T00:51:36;14.75;;;12.80;;
36391;SDS011;22639;42.690;23.356;2023-06-26T00:54:01;16.85;;;13.73;;
36391;SDS011;22639;42.690;23.356;2023-06-26T00:56:27;15.50;;;13.07;;
36391;SDS011;22639;42.690;23.356;2023-06-26T00:58:52;16.02;;;13.73;;
36391;SDS011;22639;42.690;23.356;2023-06-26T01:01:18;14.73;;;12.77;;
36391;SDS011;22639;42.690;23.356;2023-06-26T01:03:47;15.93;;;12.80;;
36391;SDS011;22639;42.690;23.356;2023-06-26T01:06:16;13.73;;;12.00;;
36391;SDS011;22639;42.690;23.356;2023-06-26T01:08:43;15.50;;;12.88;;
36391;SDS011;22639;42.690;23.356;2023-06-26T01:11:10;14.38;;;12.30;;
36391;SDS011;22639;42.690;23.356;2023-06-26T01:13:35;17.10;;;12.82;;
36391;SDS011;22639;42.690;23.356;2023-06-26T01:16:01;22.73;;;12.95;;
36391;SDS011;22639;42.690;23.356;2023-06-26T01:18:26;17.75;;;12.23;;
36391;SDS011;22639;42.690;23.356;2023-06-26T01:20:52;13.63;;;12.05;;
36391;SDS011;22639;42.690;23.356;2023-06-26T01:28:27;16.25;;;12.32;;
36391;SDS011;22639;42.690;23.356;2023-06-26T01:30:53;15.90;;;12.15;;
36391;SDS011;22639;42.690;23.356;2023-06-26T01:33:18;15.75;;;11.95;;
36391;SDS011;22639;42.690;23.356;2023-06-26T01:35:43;15.02;;;12.80;;
36391;SDS011;22639;42.690;23.356;2023-06-26T01:38:12;14.02;;;12.07;;
36391;SDS011;22639;42.690;23.356;2023-06-26T01:40:38;16.90;;;13.30;;
36391;SDS011;22639;42.690;23.356;2023-06-26T01:43:04;12.38;;;11.13;;
36391;SDS011;22639;42.690;23.356;2023-06-26T01:45:30;13.75;;;11.90;;
36391;SDS011;22639;42.690;23.356;2023-06-26T01:47:57;13.20;;;11.77;;
36391;SDS011;22639;42.690;23.356;2023-06-26T01:50:24;13.82;;;12.05;;
36391;SDS011;22639;42.690;23.356;2023-06-26T01:53:02;16.58;;;13.43;;
36391;SDS011;22639;42.690;23.356;2023-06-26T01:55:31;15.02;;;12.88;;
36391;SDS011;22639;42.690;23.356;2023-06-26T01:58:01;14.88;;;13.38;;
36391;SDS011;22639;42.690;23.356;2023-06-26T02:00:26;19.08;;;13.20;;
36391;SDS011;22639;42.690;23.356;2023-06-26T02:02:52;16.17;;;13.43;;
36391;SDS011;22639;42.690;23.356;2023-06-26T02:05:17;15.60;;;13.15;;
36391;SDS011;22639;42.690;23.356;2023-06-26T02:07:43;13.98;;;11.98;;
36391;SDS011;22639;42.690;23.356;2023-06-26T02:10:10;15.65;;;13.50;;
36391;SDS011;22639;42.690;23.356;2023-06-26T02:12:36;15.63;;;13.25;;
36391;SDS011;22639;42.690;23.356;2023-06-26T02:15:02;15.43;;;13.23;;
36391;SDS011;22639;42.690;23.356;2023-06-26T02:17:27;15.27;;;12.82;;
36391;SDS011;22639;42.690;23.356;2023-06-26T02:19:52;16.00;;;12.77;;
36391;SDS011;22639;42.690;23.356;2023-06-26T02:22:18;15.48;;;13.00;;
36391;SDS011;22639;42.690;23.356;2023-06-26T02:24:43;14.45;;;11.57;;
36391;SDS011;22639;42.690;23.356;2023-06-26T02:27:09;19.00;;;14.02;;
36391;SDS011;22639;42.690;23.356;2023-06-26T02:29:34;16.35;;;14.23;;
36391;SDS011;22639;42.690;23.356;2023-06-26T02:31:59;16.10;;;12.88;;
36391;SDS011;22639;42.690;23.356;2023-06-26T02:34:24;17.98;;;14.65;;
36391;SDS011;22639;42.690;23.356;2023-06-26T02:36:50;16.13;;;13.38;;
36391;SDS011;22639;42.690;23.356;2023-06-26T02:39:15;13.88;;;12.43;;
36391;SDS011;22639;42.690;23.356;2023-06-26T02:41:40;17.02;;;14.48;;
36391;SDS011;22639;42.690;23.356;2023-06-26T02:44:06;18.17;;;14.75;;
36391;SDS011;22639;42.690;23.356;2023-06-26T02:46:32;19.08;;;14.80;;
36391;SDS011;22639;42.690;23.356;2023-06-26T02:48:57;16.60;;;14.90;;
36391;SDS011;22639;42.690;23.356;2023-06-26T02:51:22;17.92;;;16.00;;
36391;SDS011;22639;42.690;23.356;2023-06-26T02:53:47;17.95;;;15.57;;
36391;SDS011;22639;42.690;23.356;2023-06-26T02:56:13;19.13;;;15.70;;
36391;SDS011;22639;42.690;23.356;2023-06-26T02:58:38;18.02;;;16.13;;
36391;SDS011;22639;42.690;23.356;2023-06-26T03:01:03;20.58;;;17.02;;
36391;SDS011;22639;42.690;23.356;2023-06-26T03:03:28;20.83;;;16.67;;
36391;SDS011;22639;42.690;23.356;2023-06-26T03:05:53;21.23;;;17.58;;
36391;SDS011;22639;42.690;23.356;2023-06-26T03:08:19;20.67;;;16.73;;
36391;SDS011;22639;42.690;23.356;2023-06-26T03:10:44;19.40;;;16.75;;
36391;SDS011;22639;42.690;23.356;2023-06-26T03:13:11;23.20;;;17.27;;
36391;SDS011;22639;42.690;23.356;2023-06-26T03:15:37;20.05;;;17.60;;
36391;SDS011;22639;42.690;23.356;2023-06-26T03:18:03;23.55;;;17.63;;
36391;SDS011;22639;42.690;23.356;2023-06-26T03:20:28;21.13;;;18.13;;
36391;SDS011;22639;42.690;23.356;2023-06-26T03:22:53;21.50;;;17.83;;
36391;SDS011;22639;42.690;23.356;2023-06-26T03:25:19;21.73;;;17.20;;
36391;SDS011;22639;42.690;23.356;2023-06-26T03:27:44;21.38;;;17.27;;
36391;SDS011;22639;42.690;23.356;2023-06-26T03:30:09;21.17;;;17.23;;
36391;SDS011;22639;42.690;23.356;2023-06-26T03:32:35;22.35;;;18.90;;
36391;SDS011;22639;42.690;23.356;2023-06-26T03:35:01;20.17;;;17.05;;
36391;SDS011;22639;42.690;23.356;2023-06-26T03:37:28;20.50;;;16.73;;
36391;SDS011;22639;42.690;23.356;2023-06-26T03:39:53;22.08;;;18.40;;
36391;SDS011;22639;42.690;23.356;2023-06-26T03:42:20;23.42;;;18.63;;
36391;SDS011;22639;42.690;23.356;2023-06-26T03:44:45;22.17;;;18.38;;
36391;SDS011;22639;42.690;23.356;2023-06-26T03:47:10;22.38;;;18.65;;
36391;SDS011;22639;42.690;23.356;2023-06-26T03:49:35;20.67;;;17.67;;
36391;SDS011;22639;42.690;23.356;2023-06-26T03:52:01;21.25;;;17.90;;
36391;SDS011;22639;42.690;23.356;2023-06-26T03:54:27;22.55;;;18.15;;
36391;SDS011;22639;42.690;23.356;2023-06-26T03:56:52;20.95;;;17.58;;
36391;SDS011;22639;42.690;23.356;2023-06-26T03:59:18;23.40;;;17.83;;
36391;SDS011;22639;42.690;23.356;2023-06-26T04:01:43;24.77;;;17.02;;
36391;SDS011;22639;42.690;23.356;2023-06-26T04:04:09;20.63;;;17.63;;
36391;SDS011;22639;42.690;23.356;2023-06-26T04:06:35;19.13;;;17.13;;
36391;SDS011;22639;42.690;23.356;2023-06-26T04:09:00;21.33;;;17.27;;
36391;SDS011;22639;42.690;23.356;2023-06-26T04:11:27;19.95;;;16.85;;
36391;SDS011;22639;42.690;23.356;2023-06-26T04:13:53;21.25;;;16.20;;
36391;SDS011;22639;42.690;23.356;2023-06-26T04:16:20;21.27;;;16.83;;
36391;SDS011;22639;42.690;23.356;2023-06-26T04:18:46;22.73;;;17.48;;
36391;SDS011;22639;42.690;23.356;2023-06-26T04:21:12;17.05;;;14.65;;
36391;SDS011;22639;42.690;23.356;2023-06-26T04:23:38;17.55;;;15.75;;
36391;SDS011;22639;42.690;23.356;2023-06-26T04:26:05;21.48;;;16.10;;
36391;SDS011;22639;42.690;23.356;2023-06-26T04:28:34;16.92;;;15.10;;
36391;SDS011;22639;42.690;23.356;2023-06-26T04:30:59;18.10;;;15.68;;
36391;SDS011;22639;42.690;23.356;2023-06-26T04:33:25;16.23;;;14.52;;
36391;SDS011;22639;42.690;23.356;2023-06-26T04:35:51;19.35;;;15.85;;
36391;SDS011;22639;42.690;23.356;2023-06-26T04:38:17;19.27;;;16.27;;
36391;SDS011;22639;42.690;23.356;2023-06-26T04:40:42;20.35;;;15.70;;
36391;SDS011;22639;42.690;23.356;2023-06-26T04:43:07;20.42;;;15.63;;
36391;SDS011;22639;42.690;23.356;2023-06-26T04:45:33;17.65;;;15.45;;
36391;SDS011;22639;42.690;23.356;2023-06-26T04:47:58;20.98;;;15.82;;
36391;SDS011;22639;42.690;23.356;2023-06-26T04:50:25;16.80;;;14.90;;
36391;SDS011;22639;42.690;23.356;2023-06-26T04:52:51;15.30;;;12.98;;
36391;SDS011;22639;42.690;23.356;2023-06-26T04:55:17;15.73;;;14.15;;
36391;SDS011;22639;42.690;23.356;2023-06-26T04:57:45;15.52;;;14.02;;
36391;SDS011;22639;42.690;23.356;2023-06-26T05:00:11;14.63;;;13.13;;
36391;SDS011;22639;42.690;23.356;2023-06-26T05:02:36;15.85;;;14.18;;
36391;SDS011;22639;42.690;23.356;2023-06-26T05:05:02;14.88;;;13.38;;
36391;SDS011;22639;42.690;23.356;2023-06-26T05:07:27;16.25;;;14.43;;
36391;SDS011;22639;42.690;23.356;2023-06-26T05:09:52;17.17;;;13.73;;
36391;SDS011;22639;42.690;23.356;2023-06-26T05:12:17;16.23;;;14.60;;
36391;SDS011;22639;42.690;23.356;2023-06-26T05:14:43;14.65;;;13.25;;
36391;SDS011;22639;42.690;23.356;2023-06-26T05:17:08;15.30;;;13.77;;
36391;SDS011;22639;42.690;23.356;2023-06-26T05:19:34;15.38;;;13.65;;
36391;SDS011;22639;42.690;23.356;2023-06-26T05:24:32;16.75;;;14.32;;
36391;SDS011;22639;42.690;23.356;2023-06-26T05:26:58;16.83;;;14.68;;
36391;SDS011;22639;42.690;23.356;2023-06-26T05:29:23;15.93;;;14.23;;
36391;SDS011;22639;42.690;23.356;2023-06-26T05:31:48;15.43;;;13.82;;
36391;SDS011;22639;42.690;23.356;2023-06-26T05:34:14;16.45;;;14.65;;
36391;SDS011;22639;42.690;23.356;2023-06-26T05:36:41;15.95;;;14.23;;
36391;SDS011;22639;42.690;23.356;2023-06-26T05:39:07;18.75;;;14.35;;
36391;SDS011;22639;42.690;23.356;2023-06-26T05:41:32;15.80;;;14.10;;
36391;SDS011;22639;42.690;23.356;2023-06-26T05:43:57;15.23;;;13.32;;
36391;SDS011;22639;42.690;23.356;2023-06-26T05:46:22;15.63;;;13.57;;
36391;SDS011;22639;42.690;23.356;2023-06-26T05:48:48;15.68;;;14.07;;
36391;SDS011;22639;42.690;23.356;2023-06-26T05:51:13;18.77;;;13.95;;
36391;SDS011;22639;42.690;23.356;2023-06-26T05:53:38;14.48;;;13.07;;
36391;SDS011;22639;42.690;23.356;2023-06-26T05:56:04;13.75;;;12.07;;
36391;SDS011;22639;42.690;23.356;2023-06-26T05:58:29;13.13;;;11.93;;
36391;SDS011;22639;42.690;23.356;2023-06-26T06:00:55;14.82;;;12.38;;
36391;SDS011;22639;42.690;23.356;2023-06-26T06:03:20;14.20;;;12.45;;
36391;SDS011;22639;42.690;23.356;2023-06-26T06:05:45;15.77;;;12.13;;
36391;SDS011;22639;42.690;23.356;2023-06-26T06:08:11;13.05;;;11.82;;
36391;SDS011;22639;42.690;23.356;2023-06-26T06:10:37;14.48;;;12.70;;
36391;SDS011;22639;42.690;23.356;2023-06-26T06:13:02;13.27;;;12.07;;
36391;SDS011;22639;42.690;23.356;2023-06-26T06:15:27;14.10;;;12.57;;
36391;SDS011;22639;42.690;23.356;2023-06-26T06:17:53;13.80;;;12.40;;
36391;SDS011;22639;42.690;23.356;2023-06-26T06:20:18;12.88;;;11.68;;
36391;SDS011;22639;42.690;23.356;2023-06-26T06:22:46;14.27;;;12.63;;
36391;SDS011;22639;42.690;23.356;2023-06-26T06:25:14;13.70;;;12.13;;
36391;SDS011;22639;42.690;23.356;2023-06-26T06:27:39;12.25;;;10.95;;
36391;SDS011;22639;42.690;23.356;2023-06-26T06:30:04;11.50;;;10.43;;
36391;SDS011;22639;42.690;23.356;2023-06-26T06:32:30;13.60;;;12.40;;
36391;SDS011;22639;42.690;23.356;2023-06-26T06:34:56;13.05;;;11.85;;
36391;SDS011;22639;42.690;23.356;2023-06-26T06:37:23;11.80;;;10.57;;
36391;SDS011;22639;42.690;23.356;2023-06-26T06:39:49;10.63;;;9.63;;
36391;SDS011;22639;42.690;23.356;2023-06-26T06:42:14;11.57;;;10.43;;
36391;SDS011;22639;42.690;23.356;2023-06-26T06:44:39;12.10;;;10.93;;
36391;SDS011;22639;42.690;23.356;2023-06-26T06:47:04;12.60;;;11.50;;
36391;SDS011;22639;42.690;23.356;2023-06-26T06:49:30;12.63;;;10.90;;
36391;SDS011;22639;42.690;23.356;2023-06-26T06:51:55;11.18;;;10.00;;
36391;SDS011;22639;42.690;23.356;2023-06-26T06:54:21;10.00;;;9.10;;
36391;SDS011;22639;42.690;23.356;2023-06-26T06:56:46;9.07;;;8.32;;
36391;SDS011;22639;42.690;23.356;2023-06-26T06:59:11;9.13;;;8.15;;
36391;SDS011;22639;42.690;23.356;2023-06-26T07:01:36;9.52;;;8.73;;
36391;SDS011;22639;42.690;23.356;2023-06-26T07:04:02;9.68;;;8.88;;
36391;SDS011;22639;42.690;23.356;2023-06-26T07:06:29;9.60;;;8.77;;
36391;SDS011;22639;42.690;23.356;2023-06-26T07:08:54;9.35;;;8.57;;
36391;SDS011;22639;42.690;23.356;2023-06-26T07:11:19;9.30;;;8.40;;
36391;SDS011;22639;42.690;23.356;2023-06-26T07:13:44;8.65;;;7.85;;
36391;SDS011;22639;42.690;23.356;2023-06-26T07:16:10;9.48;;;8.57;;
36391;SDS011;22639;42.690;23.356;2023-06-26T07:18:37;9.70;;;8.80;;
36391;SDS011;22639;42.690;23.356;2023-06-26T07:21:03;9.75;;;8.73;;
36391;SDS011;22639;42.690;23.356;2023-06-26T07:23:28;8.88;;;8.10;;
36391;SDS011;22639;42.690;23.356;2023-06-26T07:25:53;7.93;;;7.25;;
36391;SDS011;22639;42.690;23.356;2023-06-26T07:28:19;8.65;;;7.85;;
36391;SDS011;22639;42.690;23.356;2023-06-26T07:30:44;7.35;;;6.68;;
36391;SDS011;22639;42.690;23.356;2023-06-26T07:33:09;8.50;;;7.70;;
36391;SDS011;22639;42.690;23.356;2023-06-26T07:35:35;6.78;;;6.28;;
36391;SDS011;22639;42.690;23.356;2023-06-26T07:38:00;7.90;;;7.13;;
36391;SDS011;22639;42.690;23.356;2023-06-26T07:40:26;5.85;;;5.35;;
36391;SDS011;22639;42.690;23.356;2023-06-26T07:42:51;6.32;;;5.82;;
36391;SDS011;22639;42.690;23.356;2023-06-26T07:45:18;6.00;;;5.50;;
36391;SDS011;22639;42.690;23.356;2023-06-26T07:47:44;5.90;;;5.40;;
36391;SDS011;22639;42.690;23.356;2023-06-26T07:50:10;6.32;;;5.22;;
36391;SDS011;22639;42.690;23.356;2023-06-26T07:52:35;6.40;;;5.80;;
36391;SDS011;22639;42.690;23.356;2023-06-26T07:55:00;6.18;;;5.68;;
36391;SDS011;22639;42.690;23.356;2023-06-26T07:57:25;5.30;;;4.82;;
36391;SDS011;22639;42.690;23.356;2023-06-26T07:59:51;5.47;;;5.07;;
36391;SDS011;22639;42.690;23.356;2023-06-26T08:02:17;6.00;;;5.32;;
36391;SDS011;22639;42.690;23.356;2023-06-26T08:04:42;5.15;;;4.78;;
36391;SDS011;22639;42.690;23.356;2023-06-26T08:07:08;6.15;;;5.65;;
36391;SDS011;22639;42.690;23.356;2023-06-26T08:09:33;5.47;;;5.07;;
36391;SDS011;22639;42.690;23.356;2023-06-26T08:11:58;6.13;;;5.53;;
36391;SDS011;22639;42.690;23.356;2023-06-26T08:14:24;5.93;;;5.32;;
36391;SDS011;22639;42.690;23.356;2023-06-26T08:16:49;6.18;;;5.60;;
36391;SDS011;22639;42.690;23.356;2023-06-26T08:19:15;6.45;;;5.85;;
36391;SDS011;22639;42.690;23.356;2023-06-26T08:21:41;6.15;;;5.55;;
36391;SDS011;22639;42.690;23.356;2023-06-26T08:24:06;5.90;;;5.30;;
36391;SDS011;22639;42.690;23.356;2023-06-26T08:26:32;6.10;;;5.60;;
36391;SDS011;22639;42.690;23.356;2023-06-26T08:28:57;5.32;;;4.93;;
36391;SDS011;22639;42.690;23.356;2023-06-26T08:31:22;5.63;;;5.18;;
36391;SDS011;22639;42.690;23.356;2023-06-26T08:33:48;7.03;;;5.78;;
36391;SDS011;22639;42.690;23.356;2023-06-26T08:36:13;5.53;;;5.03;;
36391;SDS011;22639;42.690;23.356;2023-06-26T08:38:38;6.53;;;5.93;;
36391;SDS011;22639;42.690;23.356;2023-06-26T08:41:08;6.47;;;5.22;;
36391;SDS011;22639;42.690;23.356;2023-06-26T08:43:34;5.32;;;4.82;;
36391;SDS011;22639;42.690;23.356;2023-06-26T08:45:59;5.53;;;4.95;;
36391;SDS011;22639;42.690;23.356;2023-06-26T08:48:25;4.60;;;4.18;;
36391;SDS011;22639;42.690;23.356;2023-06-26T08:50:52;4.63;;;4.22;;
36391;SDS011;22639;42.690;23.356;2023-06-26T08:53:33;4.80;;;4.45;;
36391;SDS011;22639;42.690;23.356;2023-06-26T08:56:01;4.53;;;4.18;;
36391;SDS011;22639;42.690;23.356;2023-06-26T08:58:26;5.13;;;4.63;;
36391;SDS011;22639;42.690;23.356;2023-06-26T09:00:52;7.68;;;5.05;;
36391;SDS011;22639;42.690;23.356;2023-06-26T09:03:17;5.32;;;4.93;;
36391;SDS011;22639;42.690;23.356;2023-06-26T09:05:43;5.50;;;5.00;;
36391;SDS011;22639;42.690;23.356;2023-06-26T09:08:08;5.50;;;5.00;;
36391;SDS011;22639;42.690;23.356;2023-06-26T09:10:33;5.28;;;4.80;;
36391;SDS011;22639;42.690;23.356;2023-06-26T09:12:58;4.97;;;4.50;;
36391;SDS011;22639;42.690;23.356;2023-06-26T09:18:10;7.20;;;4.93;;
36391;SDS011;22639;42.690;23.356;2023-06-26T09:20:37;5.45;;;5.00;;
36391;SDS011;22639;42.690;23.356;2023-06-26T09:23:02;5.63;;;5.13;;
36391;SDS011;22639;42.690;23.356;2023-06-26T09:25:29;5.40;;;4.90;;
36391;SDS011;22639;42.690;23.356;2023-06-26T09:27:55;5.60;;;5.10;;
36391;SDS011;22639;42.690;23.356;2023-06-26T09:30:21;5.93;;;4.70;;
36391;SDS011;22639;42.690;23.356;2023-06-26T09:32:46;5.63;;;5.20;;
36391;SDS011;22639;42.690;23.356;2023-06-26T09:35:12;5.03;;;4.63;;
36391;SDS011;22639;42.690;23.356;2023-06-26T09:37:37;5.78;;;5.28;;
36391;SDS011;22639;42.690;23.356;2023-06-26T09:40:03;5.20;;;4.70;;
36391;SDS011;22639;42.690;23.356;2023-06-26T09:42:28;5.60;;;5.10;;
36391;SDS011;22639;42.690;23.356;2023-06-26T09:44:54;5.75;;;5.25;;
36391;SDS011;22639;42.690;23.356;2023-06-26T09:47:20;5.72;;;5.18;;
36391;SDS011;22639;42.690;23.356;2023-06-26T09:49:45;5.72;;;5.15;;
36391;SDS011;22639;42.690;23.356;2023-06-26T09:52:16;7.05;;;5.97;;
36391;SDS011;22639;42.690;23.356;2023-06-26T09:54:42;5.47;;;4.95;;
36391;SDS011;22639;42.690;23.356;2023-06-26T09:57:09;5.93;;;5.30;;
36391;SDS011;22639;42.690;23.356;2023-06-26T09:59:35;5.75;;;4.63;;
36391;SDS011;22639;42.690;23.356;2023-06-26T10:02:00;6.28;;;5.55;;
36391;SDS011;22639;42.690;23.356;2023-06-26T10:04:27;5.22;;;4.72;;
36391;SDS011;22639;42.690;23.356;2023-06-26T10:06:53;6.15;;;4.85;;
36391;SDS011;22639;42.690;23.356;2023-06-26T10:09:20;6.68;;;4.22;;
36391;SDS011;22639;42.690;23.356;2023-06-26T10:11:47;4.85;;;4.45;;
36391;SDS011;22639;42.690;23.356;2023-06-26T10:14:13;6.07;;;5.47;;
36391;SDS011;22639;42.690;23.356;2023-06-26T10:16:39;6.38;;;5.35;;
36391;SDS011;22639;42.690;23.356;2023-06-26T10:19:08;7.22;;;6.53;;
36391;SDS011;22639;42.690;23.356;2023-06-26T10:21:34;7.85;;;5.03;;
36391;SDS011;22639;42.690;23.356;2023-06-26T10:23:59;6.00;;;5.35;;
36391;SDS011;22639;42.690;23.356;2023-06-26T10:26:25;8.52;;;5.93;;
36391;SDS011;22639;42.690;23.356;2023-06-26T10:28:52;7.53;;;5.93;;
36391;SDS011;22639;42.690;23.356;2023-06-26T10:31:19;6.57;;;5.47;;
36391;SDS011;22639;42.690;23.356;2023-06-26T10:33:46;6.10;;;5.50;;
36391;SDS011;22639;42.690;23.356;2023-06-26T10:36:12;8.25;;;5.47;;
36391;SDS011;22639;42.690;23.356;2023-06-26T10:41:19;6.07;;;4.90;;
36391;SDS011;22639;42.690;23.356;2023-06-26T10:43:44;5.70;;;5.10;;
36391;SDS011;22639;42.690;23.356;2023-06-26T10:46:11;7.20;;;5.47;;
36391;SDS011;22639;42.690;23.356;2023-06-26T10:48:59;8.70;;;4.75;;
36391;SDS011;22639;42.690;23.356;2023-06-26T10:51:29;7.10;;;5.72;;
36391;SDS011;22639;42.690;23.356;2023-06-26T10:53:55;6.78;;;6.07;;
36391;SDS011;22639;42.690;23.356;2023-06-26T10:56:20;6.28;;;5.68;;
36391;SDS011;22639;42.690;23.356;2023-06-26T10:58:47;5.93;;;4.97;;
36391;SDS011;22639;42.690;23.356;2023-06-26T11:03:41;6.32;;;5.72;;
36391;SDS011;22639;42.690;23.356;2023-06-26T11:06:10;9.43;;;6.32;;
36391;SDS011;22639;42.690;23.356;2023-06-26T11:08:45;5.43;;;4.72;;
36391;SDS011;22639;42.690;23.356;2023-06-26T11:11:13;5.18;;;4.65;;
36391;SDS011;22639;42.690;23.356;2023-06-26T11:13:39;5.18;;;4.68;;
36391;SDS011;22639;42.690;23.356;2023-06-26T11:16:05;7.03;;;5.88;;
36391;SDS011;22639;42.690;23.356;2023-06-26T11:18:32;5.78;;;5.28;;
36391;SDS011;22639;42.690;23.356;2023-06-26T11:21:11;5.47;;;4.97;;
36391;SDS011;22639;42.690;23.356;2023-06-26T11:23:38;6.25;;;5.65;;
36391;SDS011;22639;42.690;23.356;2023-06-26T11:26:18;5.07;;;4.57;;
36391;SDS011;22639;42.690;23.356;2023-06-26T11:28:47;5.57;;;4.65;;
36391;SDS011;22639;42.690;23.356;2023-06-26T11:31:34;6.07;;;5.25;;
36391;SDS011;22639;42.690;23.356;2023-06-26T11:33:59;4.97;;;4.43;;
36391;SDS011;22639;42.690;23.356;2023-06-26T11:36:24;5.32;;;4.82;;
36391;SDS011;22639;42.690;23.356;2023-06-26T11:38:56;4.75;;;4.20;;
36391;SDS011;22639;42.690;23.356;2023-06-26T11:41:22;5.30;;;4.90;;
36391;SDS011;22639;42.690;23.356;2023-06-26T11:43:48;5.32;;;4.82;;
36391;SDS011;22639;42.690;23.356;2023-06-26T11:46:15;5.15;;;4.65;;
36391;SDS011;22639;42.690;23.356;2023-06-26T11:48:41;4.85;;;4.35;;
36391;SDS011;22639;42.690;23.356;2023-06-26T11:51:06;5.10;;;4.70;;
36391;SDS011;22639;42.690;23.356;2023-06-26T11:53:31;6.50;;;5.68;;
36391;SDS011;22639;42.690;23.356;2023-06-26T11:55:59;6.18;;;5.43;;
36391;SDS011;22639;42.690;23.356;2023-06-26T11:58:32;8.80;;;4.93;;
36391;SDS011;22639;42.690;23.356;2023-06-26T12:00:57;5.28;;;4.78;;
36391;SDS011;22639;42.690;23.356;2023-06-26T12:03:22;5.38;;;4.85;;
36391;SDS011;22639;42.690;23.356;2023-06-26T12:05:47;6.18;;;5.57;;
36391;SDS011;22639;42.690;23.356;2023-06-26T12:08:13;6.47;;;5.88;;
36391;SDS011;22639;42.690;23.356;2023-06-26T12:10:38;6.25;;;5.70;;
36391;SDS011;22639;42.690;23.356;2023-06-26T12:13:04;5.95;;;5.35;;
36391;SDS011;22639;42.690;23.356;2023-06-26T12:15:29;6.88;;;5.32;;
36391;SDS011;22639;42.690;23.356;2023-06-26T12:17:54;5.78;;;5.00;;
36391;SDS011;22639;42.690;23.356;2023-06-26T12:20:23;5.78;;;5.18;;
36391;SDS011;22639;42.690;23.356;2023-06-26T12:22:50;5.88;;;5.20;;
36391;SDS011;22639;42.690;23.356;2023-06-26T12:25:20;5.20;;;4.80;;
36391;SDS011;22639;42.690;23.356;2023-06-26T12:27:46;7.30;;;5.28;;
36391;SDS011;22639;42.690;23.356;2023-06-26T12:30:12;6.13;;;5.45;;
36391;SDS011;22639;42.690;23.356;2023-06-26T12:32:37;5.80;;;5.28;;
36391;SDS011;22639;42.690;23.356;2023-06-26T12:35:02;6.80;;;5.03;;
36391;SDS011;22639;42.690;23.356;2023-06-26T12:37:28;5.45;;;4.93;;
36391;SDS011;22639;42.690;23.356;2023-06-26T12:39:54;6.07;;;4.82;;
36391;SDS011;22639;42.690;23.356;2023-06-26T12:42:20;8.35;;;4.80;;
36391;SDS011;22639;42.690;23.356;2023-06-26T12:44:46;5.72;;;5.18;;
36391;SDS011;22639;42.690;23.356;2023-06-26T12:47:11;5.20;;;4.70;;
36391;SDS011;22639;42.690;23.356;2023-06-26T12:49:42;6.38;;;5.32;;
36391;SDS011;22639;42.690;23.356;2023-06-26T12:52:09;6.43;;;5.55;;
36391;SDS011;22639;42.690;23.356;2023-06-26T12:54:34;5.90;;;5.30;;
36391;SDS011;22639;42.690;23.356;2023-06-26T12:57:00;6.75;;;5.63;;
36391;SDS011;22639;42.690;23.356;2023-06-26T12:59:31;6.18;;;5.40;;
36391;SDS011;22639;42.690;23.356;2023-06-26T13:02:00;6.10;;;5.40;;
36391;SDS011;22639;42.690;23.356;2023-06-26T13:04:25;6.28;;;5.13;;
36391;SDS011;22639;42.690;23.356;2023-06-26T13:06:51;5.78;;;4.75;;
36391;SDS011;22639;42.690;23.356;2023-06-26T13:09:16;8.18;;;5.43;;
36391;SDS011;22639;42.690;23.356;2023-06-26T13:11:42;6.00;;;5.40;;
36391;SDS011;22639;42.690;23.356;2023-06-26T13:14:07;6.68;;;5.43;;
36391;SDS011;22639;42.690;23.356;2023-06-26T13:16:33;5.72;;;5.18;;
36391;SDS011;22639;42.690;23.356;2023-06-26T13:19:01;6.63;;;5.28;;
36391;SDS011;22639;42.690;23.356;2023-06-26T13:21:27;5.15;;;4.65;;
36391;SDS011;22639;42.690;23.356;2023-06-26T13:23:52;5.38;;;4.85;;
36391;SDS011;22639;42.690;23.356;2023-06-26T13:26:18;5.43;;;4.93;;
36391;SDS011;22639;42.690;23.356;2023-06-26T13:28:44;6.55;;;4.97;;
36391;SDS011;22639;42.690;23.356;2023-06-26T13:31:09;5.03;;;4.53;;
36391;SDS011;22639;42.690;23.356;2023-06-26T13:33:36;5.50;;;5.00;;
36391;SDS011;22639;42.690;23.356;2023-06-26T13:36:01;7.70;;;5.40;;
36391;SDS011;22639;42.690;23.356;2023-06-26T13:38:31;5.97;;;5.38;;
36391;SDS011;22639;42.690;23.356;2023-06-26T13:40:57;5.78;;;5.13;;
36391;SDS011;22639;42.690;23.356;2023-06-26T13:43:23;4.80;;;4.32;;
36391;SDS011;22639;42.690;23.356;2023-06-26T13:45:51;5.07;;;4.45;;
36391;SDS011;22639;42.690;23.356;2023-06-26T13:48:16;5.32;;;4.82;;
36391;SDS011;22639;42.690;23.356;2023-06-26T13:50:43;6.72;;;5.22;;
36391;SDS011;22639;42.690;23.356;2023-06-26T13:53:09;6.07;;;4.55;;
36391;SDS011;22639;42.690;23.356;2023-06-26T13:55:34;5.88;;;5.00;;
36391;SDS011;22639;42.690;23.356;2023-06-26T13:58:00;6.57;;;5.30;;
36391;SDS011;22639;42.690;23.356;2023-06-26T14:00:30;6.93;;;5.60;;
36391;SDS011;22639;42.690;23.356;2023-06-26T14:02:55;5.45;;;4.95;;
36391;SDS011;22639;42.690;23.356;2023-06-26T14:05:21;6.47;;;5.85;;
36391;SDS011;22639;42.690;23.356;2023-06-26T14:07:47;6.53;;;5.85;;
36391;SDS011;22639;42.690;23.356;2023-06-26T14:10:12;6.20;;;5.32;;
36391;SDS011;22639;42.690;23.356;2023-06-26T14:12:37;6.38;;;5.47;;
36391;SDS011;22639;42.690;23.356;2023-06-26T14:15:03;6.93;;;5.45;;
36391;SDS011;22639;42.690;23.356;2023-06-26T14:17:28;5.80;;;5.22;;
36391;SDS011;22639;42.690;23.356;2023-06-26T14:19:54;5.68;;;5.10;;
36391;SDS011;22639;42.690;23.356;2023-06-26T14:22:19;5.63;;;5.15;;
36391;SDS011;22639;42.690;23.356;2023-06-26T14:24:44;5.53;;;5.03;;
36391;SDS011;22639;42.690;23.356;2023-06-26T14:27:09;7.32;;;6.65;;
36391;SDS011;22639;42.690;23.356;2023-06-26T14:29:37;6.28;;;5.68;;